Barcelos, Brazil
Current Conditions -  °F | °C
As of 1:00 PM on Wednesday 26 Nov 2014 (Local Time) from SBEG Reporting Station
Scattered Clouds Scattered Clouds  
Wind Chill: 91°   Ceiling: Unl
Heat Index: 95°   Visibility: 6mi
Dew Point: 68°   Wind: 6mph
Humidity: 46%   Direction: 30°NNE
Pressure: 29.77"   Gusts: NA
Location:  0.97°S, 62.94°W
Report Text: SBEG 261700Z 03005KT 9999 SCT020 FEW025TCU 33/20 Q1008
Loading
Personal Weather Stations






























Interactive Weather Map New forecast layout! Learn more

10-Day Weather Forecast

Advertisements
Track Severe Weather on mobile